sensor_id;sensor_type;location;lat;lon;timestamp;P1;durP1;ratioP1;P2;durP2;ratioP2
55007;SDS011;40902;45.116;21.296;2023-02-15T00:01:42;44.78;;;27.90;;
55007;SDS011;40902;45.116;21.296;2023-02-15T00:04:09;44.25;;;25.65;;
55007;SDS011;40902;45.116;21.296;2023-02-15T00:06:37;44.35;;;26.00;;
55007;SDS011;40902;45.116;21.296;2023-02-15T00:09:03;40.55;;;26.17;;
55007;SDS011;40902;45.116;21.296;2023-02-15T00:11:28;44.88;;;27.45;;
55007;SDS011;40902;45.116;21.296;2023-02-15T00:14:11;43.92;;;26.35;;
55007;SDS011;40902;45.116;21.296;2023-02-15T00:16:40;45.85;;;26.77;;
55007;SDS011;40902;45.116;21.296;2023-02-15T00:19:07;47.10;;;28.05;;
55007;SDS011;40902;45.116;21.296;2023-02-15T00:21:35;45.72;;;27.10;;
55007;SDS011;40902;45.116;21.296;2023-02-15T00:24:02;42.38;;;26.38;;
55007;SDS011;40902;45.116;21.296;2023-02-15T00:26:29;51.15;;;30.27;;
55007;SDS011;40902;45.116;21.296;2023-02-15T00:28:56;67.28;;;39.25;;
55007;SDS011;40902;45.116;21.296;2023-02-15T00:31:23;56.10;;;36.10;;
55007;SDS011;40902;45.116;21.296;2023-02-15T00:33:49;47.80;;;29.88;;
55007;SDS011;40902;45.116;21.296;2023-02-15T00:36:15;45.28;;;27.05;;
55007;SDS011;40902;45.116;21.296;2023-02-15T00:38:41;46.67;;;29.05;;
55007;SDS011;40902;45.116;21.296;2023-02-15T00:41:07;47.28;;;28.00;;
55007;SDS011;40902;45.116;21.296;2023-02-15T00:43:33;60.42;;;40.40;;
55007;SDS011;40902;45.116;21.296;2023-02-15T00:46:00;55.60;;;32.20;;
55007;SDS011;40902;45.116;21.296;2023-02-15T00:48:26;50.30;;;31.35;;
55007;SDS011;40902;45.116;21.296;2023-02-15T00:50:53;50.28;;;30.13;;
55007;SDS011;40902;45.116;21.296;2023-02-15T00:53:20;47.42;;;29.42;;
55007;SDS011;40902;45.116;21.296;2023-02-15T00:55:47;47.92;;;28.30;;
55007;SDS011;40902;45.116;21.296;2023-02-15T00:58:13;49.05;;;28.70;;
55007;SDS011;40902;45.116;21.296;2023-02-15T01:00:40;43.80;;;26.13;;
55007;SDS011;40902;45.116;21.296;2023-02-15T01:03:07;50.55;;;28.48;;
55007;SDS011;40902;45.116;21.296;2023-02-15T01:05:33;47.03;;;26.90;;
55007;SDS011;40902;45.116;21.296;2023-02-15T01:07:59;43.92;;;26.60;;
55007;SDS011;40902;45.116;21.296;2023-02-15T01:10:26;44.50;;;25.65;;
55007;SDS011;40902;45.116;21.296;2023-02-15T01:12:53;46.85;;;27.98;;
55007;SDS011;40902;45.116;21.296;2023-02-15T01:15:20;45.90;;;27.65;;
55007;SDS011;40902;45.116;21.296;2023-02-15T01:17:46;47.42;;;28.27;;
55007;SDS011;40902;45.116;21.296;2023-02-15T01:20:23;44.03;;;26.67;;
55007;SDS011;40902;45.116;21.296;2023-02-15T01:22:51;43.67;;;26.45;;
55007;SDS011;40902;45.116;21.296;2023-02-15T01:25:17;46.95;;;27.95;;
55007;SDS011;40902;45.116;21.296;2023-02-15T01:27:44;50.08;;;28.88;;
55007;SDS011;40902;45.116;21.296;2023-02-15T01:30:11;50.92;;;29.48;;
55007;SDS011;40902;45.116;21.296;2023-02-15T01:32:37;47.35;;;29.95;;
55007;SDS011;40902;45.116;21.296;2023-02-15T01:35:03;50.55;;;28.08;;
55007;SDS011;40902;45.116;21.296;2023-02-15T01:37:31;46.80;;;28.20;;
55007;SDS011;40902;45.116;21.296;2023-02-15T01:39:58;51.53;;;29.13;;
55007;SDS011;40902;45.116;21.296;2023-02-15T01:42:25;43.88;;;27.23;;
55007;SDS011;40902;45.116;21.296;2023-02-15T01:44:55;50.80;;;29.55;;
55007;SDS011;40902;45.116;21.296;2023-02-15T01:47:44;48.50;;;29.05;;
55007;SDS011;40902;45.116;21.296;2023-02-15T01:50:28;47.72;;;27.75;;
55007;SDS011;40902;45.116;21.296;2023-02-15T01:53:07;53.10;;;31.88;;
55007;SDS011;40902;45.116;21.296;2023-02-15T01:56:02;53.75;;;31.17;;
55007;SDS011;40902;45.116;21.296;2023-02-15T01:58:27;61.92;;;35.20;;
55007;SDS011;40902;45.116;21.296;2023-02-15T02:00:54;57.08;;;33.05;;
55007;SDS011;40902;45.116;21.296;2023-02-15T02:03:27;52.53;;;31.20;;
55007;SDS011;40902;45.116;21.296;2023-02-15T02:06:13;53.38;;;31.95;;
55007;SDS011;40902;45.116;21.296;2023-02-15T02:08:40;57.53;;;33.00;;
55007;SDS011;40902;45.116;21.296;2023-02-15T02:11:13;54.35;;;32.53;;
55007;SDS011;40902;45.116;21.296;2023-02-15T02:13:40;51.45;;;32.35;;
55007;SDS011;40902;45.116;21.296;2023-02-15T02:21:47;51.83;;;31.73;;
55007;SDS011;40902;45.116;21.296;2023-02-15T02:30:26;54.88;;;31.58;;
55007;SDS011;40902;45.116;21.296;2023-02-15T02:33:10;52.80;;;29.98;;
55007;SDS011;40902;45.116;21.296;2023-02-15T02:35:43;51.58;;;29.55;;
55007;SDS011;40902;45.116;21.296;2023-02-15T02:41:00;53.90;;;29.88;;
55007;SDS011;40902;45.116;21.296;2023-02-15T02:46:40;54.63;;;32.17;;
55007;SDS011;40902;45.116;21.296;2023-02-15T02:49:27;57.90;;;34.20;;
55007;SDS011;40902;45.116;21.296;2023-02-15T02:52:07;59.63;;;33.50;;
55007;SDS011;40902;45.116;21.296;2023-02-15T02:54:52;60.92;;;33.80;;
55007;SDS011;40902;45.116;21.296;2023-02-15T02:57:19;58.45;;;34.05;;
55007;SDS011;40902;45.116;21.296;2023-02-15T02:59:48;55.92;;;32.83;;
55007;SDS011;40902;45.116;21.296;2023-02-15T03:02:22;60.55;;;33.58;;
55007;SDS011;40902;45.116;21.296;2023-02-15T03:04:56;61.70;;;34.20;;
55007;SDS011;40902;45.116;21.296;2023-02-15T03:07:28;57.67;;;34.88;;
55007;SDS011;40902;45.116;21.296;2023-02-15T03:09:59;65.85;;;36.80;;
55007;SDS011;40902;45.116;21.296;2023-02-15T03:12:28;63.40;;;35.60;;
55007;SDS011;40902;45.116;21.296;2023-02-15T03:14:59;60.33;;;35.90;;
55007;SDS011;40902;45.116;21.296;2023-02-15T03:17:28;65.03;;;35.67;;
55007;SDS011;40902;45.116;21.296;2023-02-15T03:19:59;64.32;;;37.67;;
55007;SDS011;40902;45.116;21.296;2023-02-15T03:22:37;64.75;;;37.70;;
55007;SDS011;40902;45.116;21.296;2023-02-15T03:27:40;65.20;;;38.88;;
55007;SDS011;40902;45.116;21.296;2023-02-15T03:30:12;73.13;;;40.35;;
55007;SDS011;40902;45.116;21.296;2023-02-15T03:32:41;73.18;;;43.10;;
55007;SDS011;40902;45.116;21.296;2023-02-15T03:35:09;69.50;;;41.08;;
55007;SDS011;40902;45.116;21.296;2023-02-15T03:37:44;71.57;;;41.30;;
55007;SDS011;40902;45.116;21.296;2023-02-15T03:40:23;75.40;;;42.88;;
55007;SDS011;40902;45.116;21.296;2023-02-15T03:43:14;72.68;;;43.70;;
55007;SDS011;40902;45.116;21.296;2023-02-15T03:45:49;71.90;;;41.80;;
55007;SDS011;40902;45.116;21.296;2023-02-15T03:48:24;73.35;;;42.85;;
55007;SDS011;40902;45.116;21.296;2023-02-15T03:51:15;72.82;;;43.38;;
55007;SDS011;40902;45.116;21.296;2023-02-15T03:56:29;77.40;;;44.13;;
55007;SDS011;40902;45.116;21.296;2023-02-15T03:58:55;71.43;;;43.30;;
55007;SDS011;40902;45.116;21.296;2023-02-15T04:01:42;74.07;;;42.85;;
55007;SDS011;40902;45.116;21.296;2023-02-15T04:04:36;74.50;;;43.47;;
55007;SDS011;40902;45.116;21.296;2023-02-15T04:07:05;75.07;;;42.50;;
55007;SDS011;40902;45.116;21.296;2023-02-15T04:09:32;80.45;;;45.20;;
55007;SDS011;40902;45.116;21.296;2023-02-15T04:12:16;78.28;;;45.00;;
55007;SDS011;40902;45.116;21.296;2023-02-15T04:14:42;78.85;;;43.75;;
55007;SDS011;40902;45.116;21.296;2023-02-15T04:17:27;79.25;;;46.10;;
55007;SDS011;40902;45.116;21.296;2023-02-15T04:19:52;78.70;;;46.60;;
55007;SDS011;40902;45.116;21.296;2023-02-15T04:25:20;78.50;;;44.40;;
55007;SDS011;40902;45.116;21.296;2023-02-15T04:27:53;82.28;;;47.13;;
55007;SDS011;40902;45.116;21.296;2023-02-15T04:30:20;81.45;;;46.15;;
55007;SDS011;40902;45.116;21.296;2023-02-15T04:32:48;76.97;;;45.92;;
55007;SDS011;40902;45.116;21.296;2023-02-15T04:35:14;78.28;;;44.58;;
55007;SDS011;40902;45.116;21.296;2023-02-15T04:37:40;75.35;;;43.05;;
55007;SDS011;40902;45.116;21.296;2023-02-15T04:40:07;80.57;;;46.35;;
55007;SDS011;40902;45.116;21.296;2023-02-15T04:42:34;78.32;;;44.67;;
55007;SDS011;40902;45.116;21.296;2023-02-15T04:45:00;77.22;;;45.55;;
55007;SDS011;40902;45.116;21.296;2023-02-15T04:47:27;75.80;;;44.50;;
55007;SDS011;40902;45.116;21.296;2023-02-15T04:49:53;75.40;;;45.65;;
55007;SDS011;40902;45.116;21.296;2023-02-15T04:52:18;78.18;;;45.35;;
55007;SDS011;40902;45.116;21.296;2023-02-15T04:54:44;78.65;;;45.83;;
55007;SDS011;40902;45.116;21.296;2023-02-15T04:57:10;75.80;;;44.55;;
55007;SDS011;40902;45.116;21.296;2023-02-15T04:59:36;75.60;;;44.28;;
55007;SDS011;40902;45.116;21.296;2023-02-15T05:02:02;75.95;;;44.03;;
55007;SDS011;40902;45.116;21.296;2023-02-15T05:04:28;77.82;;;44.88;;
55007;SDS011;40902;45.116;21.296;2023-02-15T05:06:53;77.10;;;45.20;;
55007;SDS011;40902;45.116;21.296;2023-02-15T05:09:19;75.93;;;43.95;;
55007;SDS011;40902;45.116;21.296;2023-02-15T05:11:45;75.47;;;45.55;;
55007;SDS011;40902;45.116;21.296;2023-02-15T05:14:11;77.72;;;43.72;;
55007;SDS011;40902;45.116;21.296;2023-02-15T05:16:37;78.13;;;46.55;;
55007;SDS011;40902;45.116;21.296;2023-02-15T05:19:03;78.25;;;44.92;;
55007;SDS011;40902;45.116;21.296;2023-02-15T05:21:29;78.47;;;43.45;;
55007;SDS011;40902;45.116;21.296;2023-02-15T05:23:54;78.72;;;46.15;;
55007;SDS011;40902;45.116;21.296;2023-02-15T05:26:21;78.35;;;44.00;;
55007;SDS011;40902;45.116;21.296;2023-02-15T05:29:07;74.70;;;43.70;;
55007;SDS011;40902;45.116;21.296;2023-02-15T05:31:33;83.25;;;45.47;;
55007;SDS011;40902;45.116;21.296;2023-02-15T05:33:59;81.05;;;45.65;;
55007;SDS011;40902;45.116;21.296;2023-02-15T05:36:25;81.05;;;45.70;;
55007;SDS011;40902;45.116;21.296;2023-02-15T05:38:52;80.18;;;46.67;;
55007;SDS011;40902;45.116;21.296;2023-02-15T05:41:17;82.90;;;48.00;;
55007;SDS011;40902;45.116;21.296;2023-02-15T05:43:43;99.85;;;49.83;;
55007;SDS011;40902;45.116;21.296;2023-02-15T05:46:09;81.20;;;47.38;;
55007;SDS011;40902;45.116;21.296;2023-02-15T05:48:35;86.10;;;48.95;;
55007;SDS011;40902;45.116;21.296;2023-02-15T05:53:31;95.72;;;51.92;;
55007;SDS011;40902;45.116;21.296;2023-02-15T05:55:59;85.68;;;46.60;;
55007;SDS011;40902;45.116;21.296;2023-02-15T05:58:28;85.35;;;49.63;;
55007;SDS011;40902;45.116;21.296;2023-02-15T06:00:55;95.68;;;51.15;;
55007;SDS011;40902;45.116;21.296;2023-02-15T06:03:21;92.25;;;51.72;;
55007;SDS011;40902;45.116;21.296;2023-02-15T06:05:48;93.57;;;52.63;;
55007;SDS011;40902;45.116;21.296;2023-02-15T06:08:14;89.18;;;49.03;;
55007;SDS011;40902;45.116;21.296;2023-02-15T06:10:41;84.38;;;48.75;;
55007;SDS011;40902;45.116;21.296;2023-02-15T06:13:07;84.63;;;48.10;;
55007;SDS011;40902;45.116;21.296;2023-02-15T06:15:32;88.57;;;50.20;;
55007;SDS011;40902;45.116;21.296;2023-02-15T06:17:59;95.03;;;50.83;;
55007;SDS011;40902;45.116;21.296;2023-02-15T06:20:25;92.43;;;52.00;;
55007;SDS011;40902;45.116;21.296;2023-02-15T06:22:51;88.25;;;51.00;;
55007;SDS011;40902;45.116;21.296;2023-02-15T06:25:17;87.78;;;47.97;;
55007;SDS011;40902;45.116;21.296;2023-02-15T06:27:42;89.80;;;48.78;;
55007;SDS011;40902;45.116;21.296;2023-02-15T06:30:09;78.97;;;45.65;;
55007;SDS011;40902;45.116;21.296;2023-02-15T06:32:35;81.55;;;44.90;;
55007;SDS011;40902;45.116;21.296;2023-02-15T06:35:01;78.43;;;46.80;;
55007;SDS011;40902;45.116;21.296;2023-02-15T06:37:27;78.63;;;46.33;;
55007;SDS011;40902;45.116;21.296;2023-02-15T06:39:53;85.38;;;46.35;;
55007;SDS011;40902;45.116;21.296;2023-02-15T06:42:19;79.88;;;45.22;;
55007;SDS011;40902;45.116;21.296;2023-02-15T06:44:44;75.55;;;44.50;;
55007;SDS011;40902;45.116;21.296;2023-02-15T06:47:11;74.50;;;44.08;;
55007;SDS011;40902;45.116;21.296;2023-02-15T06:49:37;76.95;;;43.85;;
55007;SDS011;40902;45.116;21.296;2023-02-15T06:52:03;76.50;;;44.92;;
55007;SDS011;40902;45.116;21.296;2023-02-15T06:54:29;73.85;;;42.50;;
55007;SDS011;40902;45.116;21.296;2023-02-15T06:56:54;77.60;;;44.22;;
55007;SDS011;40902;45.116;21.296;2023-02-15T06:59:20;73.95;;;43.88;;
55007;SDS011;40902;45.116;21.296;2023-02-15T07:01:46;76.95;;;44.47;;
55007;SDS011;40902;45.116;21.296;2023-02-15T07:04:12;73.13;;;43.08;;
55007;SDS011;40902;45.116;21.296;2023-02-15T07:06:38;77.18;;;44.60;;
55007;SDS011;40902;45.116;21.296;2023-02-15T07:09:04;82.80;;;46.45;;
55007;SDS011;40902;45.116;21.296;2023-02-15T07:11:30;79.88;;;45.38;;
55007;SDS011;40902;45.116;21.296;2023-02-15T07:14:15;76.90;;;45.22;;
55007;SDS011;40902;45.116;21.296;2023-02-15T07:16:40;69.28;;;41.17;;
55007;SDS011;40902;45.116;21.296;2023-02-15T07:19:06;74.90;;;43.72;;
55007;SDS011;40902;45.116;21.296;2023-02-15T07:21:33;72.00;;;42.00;;
55007;SDS011;40902;45.116;21.296;2023-02-15T07:23:59;78.93;;;43.65;;
55007;SDS011;40902;45.116;21.296;2023-02-15T07:26:25;81.35;;;47.30;;
55007;SDS011;40902;45.116;21.296;2023-02-15T07:28:51;84.47;;;49.53;;
55007;SDS011;40902;45.116;21.296;2023-02-15T07:31:17;87.65;;;50.40;;
55007;SDS011;40902;45.116;21.296;2023-02-15T07:33:42;77.30;;;43.72;;
55007;SDS011;40902;45.116;21.296;2023-02-15T07:36:08;82.35;;;44.45;;
55007;SDS011;40902;45.116;21.296;2023-02-15T07:38:37;80.13;;;45.45;;
55007;SDS011;40902;45.116;21.296;2023-02-15T07:41:06;78.43;;;45.50;;
55007;SDS011;40902;45.116;21.296;2023-02-15T07:43:34;79.15;;;43.28;;
55007;SDS011;40902;45.116;21.296;2023-02-15T07:46:02;75.97;;;42.33;;
55007;SDS011;40902;45.116;21.296;2023-02-15T07:48:29;77.97;;;43.92;;
55007;SDS011;40902;45.116;21.296;2023-02-15T07:51:02;76.28;;;43.45;;
55007;SDS011;40902;45.116;21.296;2023-02-15T07:53:30;72.78;;;43.13;;
55007;SDS011;40902;45.116;21.296;2023-02-15T07:56:04;72.75;;;41.13;;
55007;SDS011;40902;45.116;21.296;2023-02-15T07:58:37;77.40;;;45.95;;
55007;SDS011;40902;45.116;21.296;2023-02-15T08:01:16;71.18;;;43.78;;
55007;SDS011;40902;45.116;21.296;2023-02-15T08:03:43;70.72;;;42.63;;
55007;SDS011;40902;45.116;21.296;2023-02-15T08:06:09;78.22;;;45.22;;
55007;SDS011;40902;45.116;21.296;2023-02-15T08:08:36;79.53;;;46.85;;
55007;SDS011;40902;45.116;21.296;2023-02-15T08:13:50;71.68;;;43.80;;
55007;SDS011;40902;45.116;21.296;2023-02-15T08:19:08;77.22;;;43.92;;
55007;SDS011;40902;45.116;21.296;2023-02-15T08:21:40;71.10;;;43.47;;
55007;SDS011;40902;45.116;21.296;2023-02-15T08:24:08;72.50;;;42.47;;
55007;SDS011;40902;45.116;21.296;2023-02-15T08:26:35;72.88;;;42.83;;
55007;SDS011;40902;45.116;21.296;2023-02-15T08:29:03;73.03;;;41.53;;
55007;SDS011;40902;45.116;21.296;2023-02-15T08:31:31;70.82;;;42.50;;
55007;SDS011;40902;45.116;21.296;2023-02-15T08:33:57;75.30;;;43.95;;
55007;SDS011;40902;45.116;21.296;2023-02-15T08:36:24;67.38;;;39.72;;
55007;SDS011;40902;45.116;21.296;2023-02-15T08:38:52;71.88;;;43.05;;
55007;SDS011;40902;45.116;21.296;2023-02-15T08:41:22;66.20;;;41.17;;
55007;SDS011;40902;45.116;21.296;2023-02-15T08:43:53;73.57;;;42.67;;
55007;SDS011;40902;45.116;21.296;2023-02-15T08:46:21;73.38;;;43.90;;
55007;SDS011;40902;45.116;21.296;2023-02-15T08:48:48;76.00;;;44.40;;
55007;SDS011;40902;45.116;21.296;2023-02-15T08:51:15;77.88;;;45.08;;
55007;SDS011;40902;45.116;21.296;2023-02-15T08:53:52;67.90;;;40.28;;
55007;SDS011;40902;45.116;21.296;2023-02-15T08:56:21;67.63;;;40.05;;
55007;SDS011;40902;45.116;21.296;2023-02-15T08:58:49;66.63;;;40.80;;
55007;SDS011;40902;45.116;21.296;2023-02-15T09:01:16;69.30;;;40.58;;
55007;SDS011;40902;45.116;21.296;2023-02-15T09:03:45;70.38;;;41.03;;
55007;SDS011;40902;45.116;21.296;2023-02-15T09:06:13;66.25;;;39.90;;
55007;SDS011;40902;45.116;21.296;2023-02-15T09:08:39;71.47;;;41.38;;
55007;SDS011;40902;45.116;21.296;2023-02-15T09:11:15;67.13;;;38.38;;
55007;SDS011;40902;45.116;21.296;2023-02-15T09:13:47;65.55;;;38.75;;
55007;SDS011;40902;45.116;21.296;2023-02-15T09:16:16;62.85;;;37.38;;
55007;SDS011;40902;45.116;21.296;2023-02-15T09:18:42;63.10;;;37.38;;
55007;SDS011;40902;45.116;21.296;2023-02-15T09:21:09;61.08;;;36.50;;
55007;SDS011;40902;45.116;21.296;2023-02-15T09:23:40;87.93;;;49.40;;
55007;SDS011;40902;45.116;21.296;2023-02-15T09:26:14;58.55;;;35.05;;
55007;SDS011;40902;45.116;21.296;2023-02-15T09:28:42;61.97;;;37.58;;
55007;SDS011;40902;45.116;21.296;2023-02-15T09:31:12;62.85;;;36.25;;
55007;SDS011;40902;45.116;21.296;2023-02-15T09:33:40;54.92;;;33.75;;
55007;SDS011;40902;45.116;21.296;2023-02-15T09:36:18;62.63;;;37.92;;
55007;SDS011;40902;45.116;21.296;2023-02-15T09:38:46;58.25;;;34.58;;
55007;SDS011;40902;45.116;21.296;2023-02-15T09:44:05;58.42;;;33.60;;
55007;SDS011;40902;45.116;21.296;2023-02-15T09:49:40;53.55;;;31.50;;
55007;SDS011;40902;45.116;21.296;2023-02-15T09:52:17;51.20;;;31.35;;
55007;SDS011;40902;45.116;21.296;2023-02-15T09:55:08;52.10;;;30.55;;
55007;SDS011;40902;45.116;21.296;2023-02-15T10:05:50;53.28;;;32.85;;
55007;SDS011;40902;45.116;21.296;2023-02-15T10:08:29;56.72;;;34.67;;
55007;SDS011;40902;45.116;21.296;2023-02-15T10:14:09;59.85;;;37.10;;
55007;SDS011;40902;45.116;21.296;2023-02-15T10:22:14;60.10;;;35.53;;
55007;SDS011;40902;45.116;21.296;2023-02-15T10:25:41;58.92;;;34.63;;
55007;SDS011;40902;45.116;21.296;2023-02-15T10:28:17;52.85;;;31.38;;
55007;SDS011;40902;45.116;21.296;2023-02-15T10:50:11;46.63;;;29.88;;
55007;SDS011;40902;45.116;21.296;2023-02-15T10:52:49;49.55;;;31.05;;
55007;SDS011;40902;45.116;21.296;2023-02-15T11:00:45;46.20;;;29.45;;
55007;SDS011;40902;45.116;21.296;2023-02-15T11:06:09;63.28;;;41.33;;
55007;SDS011;40902;45.116;21.296;2023-02-15T11:08:49;56.40;;;36.65;;
55007;SDS011;40902;45.116;21.296;2023-02-15T11:11:22;48.22;;;28.85;;
55007;SDS011;40902;45.116;21.296;2023-02-15T11:13:54;50.58;;;32.20;;
55007;SDS011;40902;45.116;21.296;2023-02-15T11:16:33;49.42;;;31.15;;
55007;SDS011;40902;45.116;21.296;2023-02-15T11:21:37;77.68;;;51.95;;
55007;SDS011;40902;45.116;21.296;2023-02-15T11:24:18;54.88;;;34.00;;
55007;SDS011;40902;45.116;21.296;2023-02-15T11:26:59;60.97;;;42.00;;
55007;SDS011;40902;45.116;21.296;2023-02-15T11:29:34;45.58;;;28.27;;
55007;SDS011;40902;45.116;21.296;2023-02-15T11:37:32;37.33;;;24.63;;
55007;SDS011;40902;45.116;21.296;2023-02-15T11:40:02;40.58;;;24.88;;
55007;SDS011;40902;45.116;21.296;2023-02-15T11:42:40;41.45;;;27.08;;
55007;SDS011;40902;45.116;21.296;2023-02-15T11:47:57;47.65;;;32.70;;
55007;SDS011;40902;45.116;21.296;2023-02-15T11:50:25;39.13;;;24.05;;
55007;SDS011;40902;45.116;21.296;2023-02-15T11:52:58;56.58;;;35.92;;
55007;SDS011;40902;45.116;21.296;2023-02-15T11:55:27;113.78;;;67.43;;
55007;SDS011;40902;45.116;21.296;2023-02-15T12:00:32;42.55;;;27.08;;
55007;SDS011;40902;45.116;21.296;2023-02-15T12:03:22;45.55;;;29.23;;
55007;SDS011;40902;45.116;21.296;2023-02-15T12:05:58;41.85;;;27.90;;
55007;SDS011;40902;45.116;21.296;2023-02-15T12:08:33;42.58;;;25.05;;
55007;SDS011;40902;45.116;21.296;2023-02-15T12:11:15;42.58;;;28.17;;
55007;SDS011;40902;45.116;21.296;2023-02-15T12:13:56;45.03;;;28.00;;
55007;SDS011;40902;45.116;21.296;2023-02-15T12:16:26;39.38;;;25.63;;
55007;SDS011;40902;45.116;21.296;2023-02-15T12:18:57;47.53;;;31.98;;
55007;SDS011;40902;45.116;21.296;2023-02-15T12:23:51;44.00;;;28.75;;
55007;SDS011;40902;45.116;21.296;2023-02-15T12:26:23;44.10;;;29.45;;
55007;SDS011;40902;45.116;21.296;2023-02-15T12:28:53;38.28;;;24.08;;
55007;SDS011;40902;45.116;21.296;2023-02-15T12:31:33;41.03;;;27.55;;
55007;SDS011;40902;45.116;21.296;2023-02-15T12:34:02;36.05;;;23.13;;
55007;SDS011;40902;45.116;21.296;2023-02-15T12:36:42;39.60;;;25.42;;
55007;SDS011;40902;45.116;21.296;2023-02-15T12:41:45;47.20;;;31.02;;
55007;SDS011;40902;45.116;21.296;2023-02-15T12:44:23;39.78;;;25.63;;
55007;SDS011;40902;45.116;21.296;2023-02-15T12:49:41;53.67;;;33.38;;
55007;SDS011;40902;45.116;21.296;2023-02-15T12:54:45;32.97;;;21.83;;
55007;SDS011;40902;45.116;21.296;2023-02-15T13:00:32;38.92;;;24.60;;
55007;SDS011;40902;45.116;21.296;2023-02-15T13:02:52;34.28;;;22.98;;
55007;SDS011;40902;45.116;21.296;2023-02-15T13:05:34;49.67;;;33.03;;
55007;SDS011;40902;45.116;21.296;2023-02-15T13:10:56;43.85;;;31.67;;
55007;SDS011;40902;45.116;21.296;2023-02-15T13:13:25;43.75;;;28.67;;
55007;SDS011;40902;45.116;21.296;2023-02-15T13:15:59;64.32;;;40.75;;
55007;SDS011;40902;45.116;21.296;2023-02-15T13:18:31;34.72;;;21.67;;
55007;SDS011;40902;45.116;21.296;2023-02-15T13:21:00;29.80;;;20.02;;
55007;SDS011;40902;45.116;21.296;2023-02-15T13:23:51;99.78;;;74.30;;
55007;SDS011;40902;45.116;21.296;2023-02-15T13:26:23;124.93;;;92.20;;
55007;SDS011;40902;45.116;21.296;2023-02-15T13:28:54;63.25;;;47.13;;
55007;SDS011;40902;45.116;21.296;2023-02-15T13:31:23;35.08;;;22.40;;
55007;SDS011;40902;45.116;21.296;2023-02-15T13:33:56;47.85;;;31.23;;
55007;SDS011;40902;45.116;21.296;2023-02-15T13:50:01;31.60;;;20.92;;
55007;SDS011;40902;45.116;21.296;2023-02-15T13:53:09;29.75;;;20.95;;
55007;SDS011;40902;45.116;21.296;2023-02-15T14:01:45;33.75;;;24.30;;
55007;SDS011;40902;45.116;21.296;2023-02-15T14:15:13;41.15;;;24.50;;
55007;SDS011;40902;45.116;21.296;2023-02-15T14:29:07;40.00;;;24.80;;
55007;SDS011;40902;45.116;21.296;2023-02-15T14:31:49;83.68;;;44.15;;
55007;SDS011;40902;45.116;21.296;2023-02-15T14:34:20;39.13;;;24.98;;
55007;SDS011;40902;45.116;21.296;2023-02-15T14:36:52;37.72;;;24.08;;
55007;SDS011;40902;45.116;21.296;2023-02-15T14:39:29;33.75;;;21.52;;
55007;SDS011;40902;45.116;21.296;2023-02-15T14:42:21;37.40;;;25.05;;
55007;SDS011;40902;45.116;21.296;2023-02-15T14:47:39;37.90;;;24.00;;
55007;SDS011;40902;45.116;21.296;2023-02-15T14:59:00;46.92;;;30.00;;
55007;SDS011;40902;45.116;21.296;2023-02-15T15:01:30;38.72;;;25.48;;
55007;SDS011;40902;45.116;21.296;2023-02-15T15:04:02;66.47;;;42.72;;
55007;SDS011;40902;45.116;21.296;2023-02-15T15:06:33;82.38;;;50.13;;
55007;SDS011;40902;45.116;21.296;2023-02-15T15:09:19;77.57;;;48.78;;
55007;SDS011;40902;45.116;21.296;2023-02-15T15:11:51;73.65;;;45.47;;
55007;SDS011;40902;45.116;21.296;2023-02-15T15:16:59;99.25;;;58.47;;
55007;SDS011;40902;45.116;21.296;2023-02-15T15:20:12;76.82;;;49.90;;
55007;SDS011;40902;45.116;21.296;2023-02-15T15:22:19;73.93;;;48.40;;
55007;SDS011;40902;45.116;21.296;2023-02-15T15:24:47;73.88;;;48.13;;
55007;SDS011;40902;45.116;21.296;2023-02-15T15:35:34;88.50;;;55.30;;
55007;SDS011;40902;45.116;21.296;2023-02-15T15:49:10;51.17;;;32.35;;
55007;SDS011;40902;45.116;21.296;2023-02-15T15:51:46;112.57;;;70.13;;
55007;SDS011;40902;45.116;21.296;2023-02-15T15:54:17;116.80;;;74.55;;
55007;SDS011;40902;45.116;21.296;2023-02-15T15:56:49;127.45;;;81.00;;
55007;SDS011;40902;45.116;21.296;2023-02-15T15:59:22;136.93;;;89.63;;
55007;SDS011;40902;45.116;21.296;2023-02-15T16:01:50;127.22;;;81.55;;
55007;SDS011;40902;45.116;21.296;2023-02-15T16:04:24;121.20;;;79.28;;
55007;SDS011;40902;45.116;21.296;2023-02-15T16:06:51;113.25;;;71.32;;
55007;SDS011;40902;45.116;21.296;2023-02-15T16:11:51;88.20;;;56.90;;
55007;SDS011;40902;45.116;21.296;2023-02-15T16:14:37;89.80;;;57.33;;
55007;SDS011;40902;45.116;21.296;2023-02-15T16:17:05;89.95;;;55.35;;
55007;SDS011;40902;45.116;21.296;2023-02-15T16:19:43;92.72;;;60.08;;
55007;SDS011;40902;45.116;21.296;2023-02-15T16:22:30;148.80;;;93.30;;
55007;SDS011;40902;45.116;21.296;2023-02-15T16:30:18;137.10;;;87.22;;
55007;SDS011;40902;45.116;21.296;2023-02-15T16:32:47;103.68;;;64.45;;
55007;SDS011;40902;45.116;21.296;2023-02-15T16:35:18;115.22;;;72.20;;
55007;SDS011;40902;45.116;21.296;2023-02-15T16:37:45;111.20;;;64.60;;
55007;SDS011;40902;45.116;21.296;2023-02-15T16:42:52;126.75;;;76.65;;
55007;SDS011;40902;45.116;21.296;2023-02-15T16:45:21;89.10;;;53.42;;
55007;SDS011;40902;45.116;21.296;2023-02-15T16:47:52;103.90;;;62.85;;
55007;SDS011;40902;45.116;21.296;2023-02-15T16:50:27;65.00;;;39.65;;
55007;SDS011;40902;45.116;21.296;2023-02-15T16:55:30;64.97;;;39.80;;
55007;SDS011;40902;45.116;21.296;2023-02-15T16:58:04;67.07;;;42.10;;
55007;SDS011;40902;45.116;21.296;2023-02-15T17:00:36;73.22;;;44.15;;
55007;SDS011;40902;45.116;21.296;2023-02-15T17:03:06;61.92;;;38.90;;
55007;SDS011;40902;45.116;21.296;2023-02-15T17:05:56;75.70;;;44.03;;
55007;SDS011;40902;45.116;21.296;2023-02-15T17:13:36;82.55;;;51.75;;
55007;SDS011;40902;45.116;21.296;2023-02-15T17:18:32;76.97;;;47.67;;
55007;SDS011;40902;45.116;21.296;2023-02-15T17:21:00;76.18;;;46.50;;
55007;SDS011;40902;45.116;21.296;2023-02-15T17:23:41;87.97;;;52.65;;
55007;SDS011;40902;45.116;21.296;2023-02-15T17:29:02;79.82;;;48.15;;
55007;SDS011;40902;45.116;21.296;2023-02-15T17:31:36;76.75;;;48.75;;
55007;SDS011;40902;45.116;21.296;2023-02-15T17:34:03;80.13;;;47.10;;
55007;SDS011;40902;45.116;21.296;2023-02-15T17:36:30;74.07;;;46.35;;
55007;SDS011;40902;45.116;21.296;2023-02-15T17:41:22;76.38;;;46.10;;
55007;SDS011;40902;45.116;21.296;2023-02-15T17:43:48;81.05;;;48.33;;
55007;SDS011;40902;45.116;21.296;2023-02-15T17:46:14;92.22;;;54.58;;
55007;SDS011;40902;45.116;21.296;2023-02-15T17:48:43;130.93;;;78.03;;
55007;SDS011;40902;45.116;21.296;2023-02-15T17:51:12;87.35;;;51.97;;
55007;SDS011;40902;45.116;21.296;2023-02-15T17:53:40;217.63;;;111.78;;
55007;SDS011;40902;45.116;21.296;2023-02-15T17:56:26;338.05;;;177.40;;
55007;SDS011;40902;45.116;21.296;2023-02-15T17:58:51;374.10;;;209.70;;
55007;SDS011;40902;45.116;21.296;2023-02-15T18:01:17;213.75;;;121.32;;
55007;SDS011;40902;45.116;21.296;2023-02-15T18:04:03;875.00;;;454.38;;
55007;SDS011;40902;45.116;21.296;2023-02-15T18:06:48;625.50;;;342.38;;